• Join FlightAware (Why Join?)
  • Login
  • US Flag 
10:16AM EDT


 

Airport Tracker/Info


-or-


 

Live Flight TrackerFlight Track Log ✈ EJA929 ✈ 09-Aug-2013 ✈ CYYC - KPHX

Flight Track Log - Related Links

Times and Time Zones

All times are in EDT time to prevent confusion due to time zone crossing. See the EJA929 flight status page for this flight to view local times or setup timezone preferences in your user account.

Time Position Orientation Groundspeed Altitude Reporting Facility
EDT Latitude Longitude Course Direction KTS MPH feet Rate Location/Type
11:38AM 51.0667 -114.0333 170° South 170 196 3,800  Level Edmonton Center
11:39AM 51.0167 -114.0500 192° South 190 219 7,400 3,300 Climbing Edmonton Center
11:40AM 50.9500 -114.0333 171° South 290 334 10,400 2,340 Climbing Edmonton Center
11:41AM 50.8500 -114.0167 174° South 340 391 12,100 1,740 Climbing Edmonton Center
11:42AM 50.7500 -113.9667 162° South 370 426 13,900 1,680 Climbing Edmonton Center
11:43AM 50.6500 -113.9167 162° South 380 437 15,500 1,620 Climbing Edmonton Center
11:44AM 49.9774 -113.8499 170° South  Level Estimated
11:44AM 50.5500 -113.9000 174° South 390 449 17,200  Level Edmonton Center
11:45AM 50.4333 -113.8500 165° South 400 460 18,700 1,440 Climbing Edmonton Center
11:46AM 50.3167 -113.8167 170° South 410 472 20,100 1,500 Climbing Edmonton Center
11:47AM 50.2000 -113.7667 165° South 410 472 21,800 1,560 Climbing Edmonton Center
11:48AM 50.0833 -113.7500 175° South 420 483 23,300 1,560 Climbing Edmonton Center
11:49AM 49.9667 -113.7333 175° South 430 495 25,000 1,620 Climbing Edmonton Center
11:50AM 49.8333 -113.7000 171° South 440 506 26,600 1,500 Climbing Edmonton Center
11:51AM 49.7167 -113.6833 175° South 450 518 28,100 1,500 Climbing Edmonton Center
11:52AM 49.5833 -113.6500 171° South 460 529 29,700 1,500 Climbing Edmonton Center
11:53AM 49.4833 -113.6000 162° South 470 541 31,100 1,920 Climbing Edmonton Center
11:54AM 49.3333 -113.5833 176° South 470 541 33,600 2,340 Climbing Edmonton Center
11:55AM 49.2167 -113.5500 169° South 470 541 35,800 2,280 Climbing Edmonton Center
11:56AM 49.0833 -113.5333 175° South 460 529 38,200 1,980 Climbing Edmonton Center
11:57AM 48.9667 -113.5167 175° South 450 518 39,800 1,380 Climbing Edmonton Center
11:58AM 48.8333 -113.4833 171° South 460 529 41,000 600 Climbing Edmonton Center
11:59AM 48.7000 -113.4667 175° South 470 541 41,000  Level Edmonton Center
12:00PM 48.5667 -113.4333 171° South 490 564 41,000  Level Edmonton Center
12:01PM 48.4167 -113.4000 172° South 510 587 41,000  Level Edmonton Center
12:02PM 48.2833 -113.3667 171° South 510 587 41,000  Level Edmonton Center
12:03PM 48.1333 -113.3333 172° South 520 598 41,000  Level Edmonton Center
12:04PM 48.0000 -113.3000 171° South 510 587 41,000  Level Edmonton Center
12:05PM 47.8500 -113.2833 176° South 520 598 41,000  Level Edmonton Center
12:06PM 47.7000 -113.2500 171° South 510 587 41,000  Level Edmonton Center
12:07PM 47.6803 -113.2264 141° Southeast 519 597 41,000  Level Salt Lake Center
12:08PM 47.5381 -113.1981 172° South 517 595 41,000  Level Salt Lake Center
12:09PM 47.3947 -113.1714 173° South 518 596 41,000  Level Salt Lake Center
12:10PM 47.2544 -113.1442 172° South 510 587 41,000  Level Salt Lake Center
12:11PM 47.0869 -113.1108 172° South 507 583 41,000  Level Salt Lake Center
12:12PM 46.9469 -113.0847 173° South 507 583 41,000  Level Salt Lake Center
12:13PM 46.8083 -113.0586 173° South 505 581 41,000  Level Salt Lake Center
12:14PM 46.6531 -113.0286 172° South 504 580 41,000  Level Salt Lake Center
12:15PM 46.5147 -113.0031 173° South 502 578 41,000  Level Salt Lake Center
12:16PM 46.3769 -112.9775 173° South 506 582 41,000  Level Salt Lake Center
12:17PM 46.2386 -112.9517 173° South 504 580 41,000  Level Salt Lake Center
12:18PM 46.1003 -112.9269 173° South 502 578 41,000  Level Salt Lake Center
12:19PM 45.9347 -112.8961 173° South 501 577 41,000  Level Salt Lake Center
12:20PM 45.7975 -112.8689 172° South 500 575 41,000  Level Salt Lake Center
12:21PM 45.6608 -112.8456 173° South 497 572 41,000  Level Salt Lake Center
12:22PM 45.5253 -112.8183 172° South 495 570 41,000  Level Salt Lake Center
12:23PM 45.3892 -112.7956 173° South 494 568 41,000  Level Salt Lake Center
12:24PM 45.2450 -112.7681 172° South 497 572 41,000  Level Salt Lake Center
12:25PM 45.0908 -112.7403 173° South 500 575 41,000  Level Salt Lake Center
12:26PM 44.9564 -112.7161 173° South 506 582 41,000  Level Salt Lake Center
12:27PM 44.7997 -112.6875 173° South 509 586 41,000  Level Salt Lake Center
12:28PM 44.6650 -112.6639 173° South 510 587 41,000  Level Salt Lake Center
12:29PM 44.5089 -112.6361 173° South 508 585 41,000  Level Salt Lake Center
12:30PM 44.3772 -112.6133 173° South 503 579 41,000  Level Salt Lake Center
12:31PM 44.2228 -112.5869 173° South 502 578 41,000  Level Salt Lake Center
12:32PM 44.0900 -112.5622 172° South 504 580 41,000  Level Salt Lake Center
12:33PM 43.9350 -112.5364 173° South 503 579 41,000  Level Salt Lake Center
12:34PM 43.8033 -112.5136 173° South 501 577 41,000  Level Salt Lake Center
12:35PM 43.6492 -112.4856 172° South 502 578 41,000  Level Salt Lake Center
12:36PM 43.5172 -112.4628 173° South 500 575 41,000  Level Salt Lake Center
12:38PM 43.3633 -112.4364 173° South 499 574 41,000  Level Salt Lake Center
12:39PM 43.2311 -112.4136 173° South 499 574 41,000  Level Salt Lake Center
12:40PM 43.0778 -112.3867 173° South 499 574 41,000  Level Salt Lake Center
12:41PM 42.9461 -112.3658 173° South 498 573 41,000  Level Salt Lake Center
12:42PM 42.7939 -112.3397 173° South 495 570 41,000  Level Salt Lake Center
12:43PM 42.6697 -112.3214 174° South 495 570 41,000  Level Salt Lake Center
12:44PM 42.5319 -112.3000 173° South 499 574 41,000  Level Salt Lake Center
12:45PM 42.3661 -112.2753 174° South 501 577 41,000  Level Salt Lake Center
12:46PM 42.2292 -112.2694 178° South 496 571 41,000  Level Salt Lake Center
12:47PM 42.0931 -112.2722 181° South 491 565 41,000  Level Salt Lake Center
12:48PM 41.9567 -112.2733 180° South 491 565 41,000  Level Salt Lake Center
12:49PM 41.8192 -112.2739 180° South 494 568 41,000  Level Salt Lake Center
12:50PM 41.6825 -112.2747 180° South 493 567 41,000  Level Salt Lake Center
12:51PM 41.5186 -112.2764 180° South 494 568 41,000  Level Salt Lake Center
12:52PM 41.3839 -112.2769 180° South 490 564 41,000  Level Salt Lake Center
12:53PM 41.2481 -112.2781 180° South 492 566 41,000  Level Salt Lake Center
12:54PM 41.1131 -112.2786 180° South 492 566 41,000  Level Salt Lake Center
12:55PM 40.9511 -112.2803 180° South 490 564 41,000  Level Salt Lake Center
12:56PM 40.8156 -112.2817 180° South 492 566 41,000  Level Salt Lake Center
12:57PM 40.6806 -112.2828 180° South 490 564 41,000  Level Salt Lake Center
12:58PM 40.5461 -112.2839 180° South 486 559 41,000  Level Salt Lake Center
12:59PM 40.4122 -112.2847 180° South 485 558 41,000  Level Salt Lake Center
01:00PM 40.2489 -112.2864 180° South 490 564 41,000  Level Salt Lake Center
01:01PM 40.1131 -112.2867 180° South 489 563 41,000  Level Salt Lake Center
01:02PM 39.9778 -112.2886 181° South 489 563 41,000  Level Salt Lake Center
01:03PM 39.8425 -112.2906 181° South 488 562 41,000  Level Salt Lake Center
01:04PM 39.7067 -112.2917 180° South 489 563 41,000  Level Salt Lake Center
01:05PM 39.5700 -112.2908 180° South 490 564 41,000  Level Salt Lake Center
01:06PM 39.4056 -112.2936 181° South 493 567 41,000  Level Salt Lake Center
01:08PM 39.2719 -112.2939 180° South 482 555 41,000  Level Salt Lake Center
01:09PM 39.1433 -112.2947 180° South 487 560 41,000  Level Salt Lake Center
01:10PM 39.0064 -112.2956 180° South 492 566 41,000  Level Salt Lake Center
01:11PM 38.8417 -112.2978 181° South 493 567 41,000  Level Salt Lake Center
01:12PM 38.7036 -112.2978 180° South 495 570 41,000  Level Salt Lake Center
01:13PM 38.5672 -112.2994 181° South 492 566 41,000  Level Salt Lake Center
01:14PM 38.4300 -112.2997 180° South 492 566 41,000  Level Salt Lake Center
01:15PM 38.2933 -112.2992 180° South 491 565 41,000  Level Salt Lake Center
01:16PM 38.1581 -112.3006 180° South 487 560 41,000  Level Salt Lake Center
01:17PM 37.9953 -112.3011 180° South 486 559 41,000 -480 Level Salt Lake Center
01:18PM 37.8594 -112.3022 180° South 486 559 40,100 -960 Descending Salt Lake Center
01:19PM 37.7244 -112.3036 180° South 483 556 39,100 -1,020 Descending Salt Lake Center
01:20PM 37.5886 -112.3081 181° South 483 556 38,100 -1,020 Descending Salt Lake Center
01:21PM 37.4503 -112.3175 183° South 489 563 37,100 -1,020 Descending Salt Lake Center
01:22PM 37.3128 -112.3256 183° South 491 565 36,100 -1,020 Descending Salt Lake Center
01:23PM 37.1753 -112.3350 183° South 491 565 35,100 -1,020 Descending Salt Lake Center
01:24PM 37.0344 -112.3436 183° South 498 573 34,100 -900 Descending Salt Lake Center
01:25PM 36.8375 -112.3553 183° South 504 580 33,000 -480 Descending Los Angeles Center
01:26PM 36.6939 -112.3658 183° South 516 594 33,000  Level Los Angeles Center
01:27PM 36.5525 -112.3731 182° South 509 586 33,000  Level Los Angeles Center
01:28PM 36.4103 -112.3819 183° South 510 587 33,000  Level Los Angeles Center
01:29PM 36.2414 -112.3914 183° South 506 582 33,000  Level Los Angeles Center
01:31PM 36.1003 -112.4011 183° South 506 582 33,000 -300 Level Los Angeles Center
01:32PM 35.9603 -112.4064 182° South 503 579 32,400 -780 Descending Los Angeles Center
01:33PM 35.8250 -112.4119 182° South 510 587 31,400 -960 Descending Los Angeles Center
01:34PM 35.6831 -112.4200 183° South 511 588 30,400 -1,080 Descending Los Angeles Center
01:35PM 35.5106 -112.4253 181° South 514 592 29,200 -720 Descending Los Angeles Center
01:36PM 35.3711 -112.4003 172° South 507 583 29,000 -120 Descending Los Angeles Center
01:37PM 35.2322 -112.3725 171° South 505 581 29,000 -180 Level Los Angeles Center
01:38PM 35.0942 -112.3439 170° South 503 579 28,700 -600 Descending Los Angeles Center
01:39PM 34.9567 -112.3158 171° South 501 577 27,800 -960 Descending Los Angeles Center
01:40PM 34.8211 -112.2883 171° South 495 570 26,800 -1,080 Descending Albuquerque Center
01:41PM 34.6717 -112.2578 170° South 482 555 25,600 -1,260 Descending Albuquerque Center
01:42PM 34.5406 -112.2294 170° South 479 551 24,300 -1,800 Descending Albuquerque Center
01:43PM 34.4217 -112.2050 170° South 443 510 22,000 -2,100 Descending Albuquerque Center
01:44PM 34.3183 -112.1833 170° South 394 453 20,000 -2,040 Descending Albuquerque Center
01:45PM 34.2111 -112.1622 171° South 335 386 17,800 -1,860 Descending Albuquerque Center
01:46PM 34.1275 -112.1436 170° South 308 354 16,200 -1,560 Descending Albuquerque Center
01:47PM 34.0431 -112.1389 177° South 305 351 14,600 -1,560 Descending Albuquerque Center
01:48PM 33.9636 -112.1497 186° South 293 337 13,000 -1,500 Descending Albuquerque Center
01:49PM 33.8856 -112.1600 186° South 286 329 11,600 -1,380 Descending Albuquerque Center
01:50PM 33.8089 -112.1767 190° South 282 325 10,200 -1,500 Descending Albuquerque Center
01:51PM 33.7197 -112.1956 190° South 273 314 8,600 -1,440 Descending Albuquerque Center
01:52PM 33.6572 -112.2094 190° South 234 269 7,300 -1,320 Descending Albuquerque Center
01:53PM 33.5964 -112.2208 189° South 223 257 5,900 -660 Descending Albuquerque Center
01:54PM 33.5356 -112.2428 197° South 228 262 6,000  Climbing Albuquerque Center
01:55PM 33.4789 -112.2589 193° South 210 242 5,900 -960 Descending Albuquerque Center
01:56PM 33.4303 -112.2111 141° Southeast 195 224 4,100 -1,440 Descending Albuquerque Center
01:57PM 33.4283 -112.1508 92° East 182 209 3,000 -1,020 Descending Albuquerque Center
01:58PM 33.4289 -112.0892 89° East 185 213 2,100 -780 Descending Albuquerque Center
01:59PM 33.4292 -112.0431 90° East 137 158 1,400 -540 Descending Albuquerque Center
02:01PM 33.4294 -112.0011 90° East 134 154 1,100 -300 Descending Albuquerque Center